Time;durP1;ratioP1;P1;durP2;ratioP2;P2;SDS_P1;SDS_P2;PMS_P1;PMS_P2;Temp;Humidity;BMP_temperature;BMP_pressure;BME280_temperature;BME280_humidity;BME280_pressure;Samples;Min_cycle;Max_cycle;Signal;HPM_P1;HPM_P2
2022/06/26 00:00:21;;;;;;;25.00;18.87;;;;;;;-145.18;100.00;46640.88;4993609;28;20459;-68
2022/06/26 00:02:46;;;;;;;23.03;19.17;;;;;;;-145.18;100.00;46642.81;4993665;28;20069;-68
2022/06/26 00:05:12;;;;;;;21.43;18.30;;;;;;;-145.18;100.00;46642.81;4994082;28;20058;-68
2022/06/26 00:07:38;;;;;;;25.23;20.17;;;;;;;-145.18;100.00;46650.63;4993650;28;20054;-69
2022/06/26 00:10:04;;;;;;;23.87;18.80;;;;;;;-145.18;100.00;46642.81;4994084;28;20379;-68
2022/06/26 00:12:29;;;;;;;23.63;19.87;;;;;;;-145.18;100.00;46642.81;4973898;28;20050;-68
2022/06/26 00:14:54;;;;;;;24.53;19.07;;;;;;;-145.18;100.00;46640.88;4974693;28;20027;-68
2022/06/26 00:17:20;;;;;;;23.23;18.13;;;;;;;-145.18;100.00;46654.53;4973968;28;20058;-68
2022/06/26 00:19:45;;;;;;;23.20;17.20;;;;;;;-145.18;100.00;46650.63;4974716;28;20047;-68
2022/06/26 00:22:10;;;;;;;22.73;17.70;;;;;;;-145.18;100.00;46642.81;4973588;28;20030;-68
2022/06/26 00:24:37;;;;;;;24.13;16.87;;;;;;;-145.18;100.00;46640.88;4956706;28;20126;-68
2022/06/26 00:27:03;;;;;;;22.50;16.63;;;;;;;-145.18;100.00;46642.81;4974115;28;20392;-68
2022/06/26 00:29:30;;;;;;;20.83;16.27;;;;;;;-145.18;100.00;46650.63;4974124;28;20126;-68
2022/06/26 00:31:56;;;;;;;21.17;16.80;;;;;;;-145.18;100.00;46640.88;4974212;28;20034;-68
2022/06/26 00:34:22;;;;;;;22.53;15.63;;;;;;;-145.18;100.00;46642.81;4974103;28;20039;-68
2022/06/26 00:36:48;;;;;;;21.93;17.20;;;;;;;-145.18;100.00;46638.91;4973760;28;20050;-68
2022/06/26 00:39:13;;;;;;;33.03;18.30;;;;;;;-145.18;100.00;46650.63;4973881;28;20039;-68
2022/06/26 00:41:39;;;;;;;22.30;17.17;;;;;;;-145.18;100.00;46642.81;4973884;28;20039;-68
2022/06/26 00:44:15;;;;;;;22.50;17.27;;;;;;;-145.18;100.00;46640.88;4973639;28;20488;-68
2022/06/26 00:46:42;;;;;;;22.17;16.17;;;;;;;-145.18;100.00;46640.88;4972304;28;20490;-68
2022/06/26 00:49:08;;;;;;;22.47;18.10;;;;;;;-145.18;100.00;46650.63;4985171;28;20487;-68
2022/06/26 00:51:35;;;;;;;27.20;18.07;;;;;;;-145.18;100.00;46638.91;4992744;28;20061;-68
2022/06/26 00:54:00;;;;;;;25.73;19.67;;;;;;;-145.18;100.00;46640.88;4992533;28;20041;-68
2022/06/26 00:56:26;;;;;;;25.33;19.80;;;;;;;-145.18;100.00;46640.88;4992775;28;20038;-68
2022/06/26 00:58:52;;;;;;;27.27;21.53;;;;;;;-145.18;100.00;46642.81;4992609;28;20034;-68
2022/06/26 01:01:17;;;;;;;29.67;22.70;;;;;;;-145.18;100.00;46640.88;4992541;28;20034;-68
2022/06/26 01:03:43;;;;;;;34.60;24.63;;;;;;;-145.18;100.00;46640.88;4992744;28;20088;-68
2022/06/26 01:06:09;;;;;;;32.97;24.80;;;;;;;-145.18;100.00;46640.88;4992405;28;20050;-68
2022/06/26 01:08:35;;;;;;;44.83;30.27;;;;;;;-145.18;100.00;46650.63;4992251;28;20517;-68
2022/06/26 01:11:01;;;;;;;39.40;29.20;;;;;;;-145.18;100.00;46642.81;4992572;28;20475;-69
2022/06/26 01:13:27;;;;;;;48.50;34.70;;;;;;;-145.18;100.00;46642.81;4992015;28;20030;-68
2022/06/26 01:15:53;;;;;;;47.67;34.23;;;;;;;-145.18;100.00;46640.88;4959271;28;20491;-68
2022/06/26 01:18:19;;;;;;;52.23;32.97;;;;;;;-145.18;100.00;46652.59;4991495;28;20042;-68
2022/06/26 01:20:45;;;;;;;51.83;36.00;;;;;;;-145.18;100.00;46640.88;4992398;28;20035;-68
2022/06/26 01:23:10;;;;;;;51.03;34.60;;;;;;;-145.18;100.00;46638.91;4974472;28;20038;-68
2022/06/26 01:25:47;;;;;;;54.17;34.50;;;;;;;-145.18;100.00;46640.88;4992205;28;20036;-68
2022/06/26 01:28:14;;;;;;;51.03;33.40;;;;;;;-145.18;100.00;46642.81;4991800;28;20022;-68
2022/06/26 01:30:39;;;;;;;43.97;31.07;;;;;;;-145.18;100.00;46650.63;4992165;28;20033;-68
2022/06/26 01:33:06;;;;;;;47.40;31.03;;;;;;;-145.18;100.00;46652.59;4991877;28;20042;-68
2022/06/26 01:35:32;;;;;;;49.83;33.13;;;;;;;-145.18;100.00;46642.81;4988826;28;20035;-68
2022/06/26 01:38:09;;;;;;;48.30;31.80;;;;;;;-145.18;100.00;46652.59;4972045;28;20049;-68
2022/06/26 01:40:34;;;;;;;43.43;31.27;;;;;;;-145.18;100.00;46642.81;4972590;28;20041;-68
2022/06/26 01:43:00;;;;;;;45.87;31.60;;;;;;;-145.18;100.00;46650.63;4972273;28;20042;-68
2022/06/26 01:45:25;;;;;;;41.43;29.17;;;;;;;-145.18;100.00;46640.88;4972329;28;20067;-68
2022/06/26 01:47:50;;;;;;;36.53;27.07;;;;;;;-145.18;100.00;46652.59;4972331;28;20039;-68
2022/06/26 01:50:16;;;;;;;38.00;26.60;;;;;;;-145.18;100.00;46650.63;4972507;28;20125;-68
2022/06/26 01:52:41;;;;;;;32.57;24.60;;;;;;;-145.18;100.00;46652.59;4972108;28;20116;-68
2022/06/26 01:55:07;;;;;;;37.13;25.13;;;;;;;-145.18;100.00;46640.88;4972835;28;20081;-68
2022/06/26 01:57:32;;;;;;;35.87;24.37;;;;;;;-145.18;100.00;46652.59;4971960;28;20058;-68
2022/06/26 01:59:57;;;;;;;38.10;25.07;;;;;;;-145.18;100.00;46650.63;4972444;28;20398;-68
